sensor_id;sensor_type;location;lat;lon;timestamp;temperature;humidity
64869;DHT22;51349;52.424;10.840;2023-08-20T00:03:10;22.00;99.90
64869;DHT22;51349;52.424;10.840;2023-08-20T00:08:12;22.00;99.90
64869;DHT22;51349;52.424;10.840;2023-08-20T00:13:12;21.90;99.90
64869;DHT22;51349;52.424;10.840;2023-08-20T00:18:14;22.00;99.90
64869;DHT22;51349;52.424;10.840;2023-08-20T00:23:15;22.00;99.90
64869;DHT22;51349;52.424;10.840;2023-08-20T00:28:15;21.90;99.90
64869;DHT22;51349;52.424;10.840;2023-08-20T00:33:17;21.90;99.90
64869;DHT22;51349;52.424;10.840;2023-08-20T00:38:17;21.90;99.90
64869;DHT22;51349;52.424;10.840;2023-08-20T00:43:18;21.90;99.90
64869;DHT22;51349;52.424;10.840;2023-08-20T00:48:19;21.80;99.90
64869;DHT22;51349;52.424;10.840;2023-08-20T00:53:19;21.90;99.90
64869;DHT22;51349;52.424;10.840;2023-08-20T00:58:20;21.70;99.90
64869;DHT22;51349;52.424;10.840;2023-08-20T01:03:21;21.80;99.90
64869;DHT22;51349;52.424;10.840;2023-08-20T01:08:53;21.70;99.90
64869;DHT22;51349;52.424;10.840;2023-08-20T01:13:58;21.70;99.90
64869;DHT22;51349;52.424;10.840;2023-08-20T01:18:59;21.80;99.90
64869;DHT22;51349;52.424;10.840;2023-08-20T01:24:10;21.70;99.90
64869;DHT22;51349;52.424;10.840;2023-08-20T01:29:17;21.60;99.90
64869;DHT22;51349;52.424;10.840;2023-08-20T01:34:17;21.60;99.90
64869;DHT22;51349;52.424;10.840;2023-08-20T01:39:18;21.70;99.90
64869;DHT22;51349;52.424;10.840;2023-08-20T01:44:19;21.70;99.90
64869;DHT22;51349;52.424;10.840;2023-08-20T01:49:19;21.60;99.90
64869;DHT22;51349;52.424;10.840;2023-08-20T01:54:20;21.60;99.90
64869;DHT22;51349;52.424;10.840;2023-08-20T01:59:22;21.60;99.90
64869;DHT22;51349;52.424;10.840;2023-08-20T02:04:23;21.50;99.90
64869;DHT22;51349;52.424;10.840;2023-08-20T02:09:23;21.40;99.90
64869;DHT22;51349;52.424;10.840;2023-08-20T02:14:24;21.30;99.90
64869;DHT22;51349;52.424;10.840;2023-08-20T02:19:27;21.30;99.90
64869;DHT22;51349;52.424;10.840;2023-08-20T02:24:28;21.30;99.90
64869;DHT22;51349;52.424;10.840;2023-08-20T02:29:28;21.20;99.90
64869;DHT22;51349;52.424;10.840;2023-08-20T02:34:29;21.10;99.90
64869;DHT22;51349;52.424;10.840;2023-08-20T02:39:30;21.10;99.90
64869;DHT22;51349;52.424;10.840;2023-08-20T02:44:31;21.10;99.90
64869;DHT22;51349;52.424;10.840;2023-08-20T02:49:32;21.00;99.90
64869;DHT22;51349;52.424;10.840;2023-08-20T02:54:33;20.90;99.90
64869;DHT22;51349;52.424;10.840;2023-08-20T02:59:33;20.80;99.90
64869;DHT22;51349;52.424;10.840;2023-08-20T03:04:34;20.50;99.90
64869;DHT22;51349;52.424;10.840;2023-08-20T03:09:35;20.40;99.90
64869;DHT22;51349;52.424;10.840;2023-08-20T03:14:36;20.50;99.90
64869;DHT22;51349;52.424;10.840;2023-08-20T03:19:36;20.40;99.90
64869;DHT22;51349;52.424;10.840;2023-08-20T03:24:37;20.20;99.90
64869;DHT22;51349;52.424;10.840;2023-08-20T03:29:37;20.00;99.90
64869;DHT22;51349;52.424;10.840;2023-08-20T03:34:38;20.00;99.90
64869;DHT22;51349;52.424;10.840;2023-08-20T03:39:39;19.90;99.90
64869;DHT22;51349;52.424;10.840;2023-08-20T03:44:39;19.80;99.90
64869;DHT22;51349;52.424;10.840;2023-08-20T03:49:40;19.60;99.90
64869;DHT22;51349;52.424;10.840;2023-08-20T03:54:41;19.50;99.90
64869;DHT22;51349;52.424;10.840;2023-08-20T03:59:41;19.40;99.90
64869;DHT22;51349;52.424;10.840;2023-08-20T04:04:42;19.40;99.90
64869;DHT22;51349;52.424;10.840;2023-08-20T04:09:43;19.30;99.90
64869;DHT22;51349;52.424;10.840;2023-08-20T04:14:43;19.30;99.90
64869;DHT22;51349;52.424;10.840;2023-08-20T04:19:44;19.30;99.90
64869;DHT22;51349;52.424;10.840;2023-08-20T04:24:45;19.20;99.90
64869;DHT22;51349;52.424;10.840;2023-08-20T04:29:45;19.10;99.90
64869;DHT22;51349;52.424;10.840;2023-08-20T04:34:46;19.10;99.90
64869;DHT22;51349;52.424;10.840;2023-08-20T04:39:48;19.10;99.90
64869;DHT22;51349;52.424;10.840;2023-08-20T04:44:49;19.10;99.90
64869;DHT22;51349;52.424;10.840;2023-08-20T04:49:50;19.10;99.90
64869;DHT22;51349;52.424;10.840;2023-08-20T04:54:51;19.20;99.90
64869;DHT22;51349;52.424;10.840;2023-08-20T04:59:51;19.20;99.90
64869;DHT22;51349;52.424;10.840;2023-08-20T05:04:52;19.30;99.90
64869;DHT22;51349;52.424;10.840;2023-08-20T05:09:53;19.50;99.90
64869;DHT22;51349;52.424;10.840;2023-08-20T05:14:54;19.60;99.90
64869;DHT22;51349;52.424;10.840;2023-08-20T05:19:54;19.70;99.90
64869;DHT22;51349;52.424;10.840;2023-08-20T05:24:55;19.80;99.90
64869;DHT22;51349;52.424;10.840;2023-08-20T05:29:55;20.00;99.90
64869;DHT22;51349;52.424;10.840;2023-08-20T05:34:56;20.10;99.90
64869;DHT22;51349;52.424;10.840;2023-08-20T05:39:57;20.10;99.90
64869;DHT22;51349;52.424;10.840;2023-08-20T05:44:57;20.20;99.90
64869;DHT22;51349;52.424;10.840;2023-08-20T05:49:58;20.20;99.90
64869;DHT22;51349;52.424;10.840;2023-08-20T05:54:59;20.30;99.90
64869;DHT22;51349;52.424;10.840;2023-08-20T05:59:59;20.30;99.90
64869;DHT22;51349;52.424;10.840;2023-08-20T06:05:00;20.50;99.90
64869;DHT22;51349;52.424;10.840;2023-08-20T06:10:01;20.50;99.90
64869;DHT22;51349;52.424;10.840;2023-08-20T06:15:02;20.60;99.90
64869;DHT22;51349;52.424;10.840;2023-08-20T06:20:03;20.80;99.90
64869;DHT22;51349;52.424;10.840;2023-08-20T06:25:07;20.90;99.90
64869;DHT22;51349;52.424;10.840;2023-08-20T06:30:08;21.00;99.90
64869;DHT22;51349;52.424;10.840;2023-08-20T06:35:09;21.20;99.90
64869;DHT22;51349;52.424;10.840;2023-08-20T06:40:10;21.20;99.90
64869;DHT22;51349;52.424;10.840;2023-08-20T06:45:11;21.30;99.90
64869;DHT22;51349;52.424;10.840;2023-08-20T06:50:12;21.30;99.90
64869;DHT22;51349;52.424;10.840;2023-08-20T06:55:13;21.20;99.90
64869;DHT22;51349;52.424;10.840;2023-08-20T07:00:14;21.40;99.90
64869;DHT22;51349;52.424;10.840;2023-08-20T07:05:15;21.70;99.90
64869;DHT22;51349;52.424;10.840;2023-08-20T07:10:16;21.90;99.90
64869;DHT22;51349;52.424;10.840;2023-08-20T07:15:16;22.30;99.90
64869;DHT22;51349;52.424;10.840;2023-08-20T07:20:17;22.40;99.90
64869;DHT22;51349;52.424;10.840;2023-08-20T07:25:18;22.50;99.90
64869;DHT22;51349;52.424;10.840;2023-08-20T07:30:18;22.70;99.90
64869;DHT22;51349;52.424;10.840;2023-08-20T07:35:19;23.00;99.90
64869;DHT22;51349;52.424;10.840;2023-08-20T07:40:20;23.10;99.90
64869;DHT22;51349;52.424;10.840;2023-08-20T07:45:21;23.50;99.90
64869;DHT22;51349;52.424;10.840;2023-08-20T07:50:21;23.60;99.90
64869;DHT22;51349;52.424;10.840;2023-08-20T07:55:22;23.90;99.90
64869;DHT22;51349;52.424;10.840;2023-08-20T08:00:23;24.00;99.90
64869;DHT22;51349;52.424;10.840;2023-08-20T08:05:23;24.70;99.90
64869;DHT22;51349;52.424;10.840;2023-08-20T08:10:24;25.40;99.90
64869;DHT22;51349;52.424;10.840;2023-08-20T08:15:25;25.70;99.90
64869;DHT22;51349;52.424;10.840;2023-08-20T08:20:25;26.60;99.90
64869;DHT22;51349;52.424;10.840;2023-08-20T08:25:26;27.00;99.90
64869;DHT22;51349;52.424;10.840;2023-08-20T08:30:27;27.00;99.90
64869;DHT22;51349;52.424;10.840;2023-08-20T08:35:30;27.30;99.90
64869;DHT22;51349;52.424;10.840;2023-08-20T08:40:30;28.10;99.90
64869;DHT22;51349;52.424;10.840;2023-08-20T08:45:33;28.20;99.90
64869;DHT22;51349;52.424;10.840;2023-08-20T08:50:34;27.70;99.90
64869;DHT22;51349;52.424;10.840;2023-08-20T08:55:34;29.10;99.90
64869;DHT22;51349;52.424;10.840;2023-08-20T09:00:35;29.20;99.90
64869;DHT22;51349;52.424;10.840;2023-08-20T09:05:50;28.80;99.90
64869;DHT22;51349;52.424;10.840;2023-08-20T09:10:56;29.70;99.90
64869;DHT22;51349;52.424;10.840;2023-08-20T09:15:57;30.40;99.90
64869;DHT22;51349;52.424;10.840;2023-08-20T09:20:58;30.40;99.90
64869;DHT22;51349;52.424;10.840;2023-08-20T09:26:02;30.70;99.90
64869;DHT22;51349;52.424;10.840;2023-08-20T09:31:03;30.60;99.90
64869;DHT22;51349;52.424;10.840;2023-08-20T09:36:04;30.00;99.90
64869;DHT22;51349;52.424;10.840;2023-08-20T09:41:05;29.50;99.90
64869;DHT22;51349;52.424;10.840;2023-08-20T09:46:10;30.50;99.90
64869;DHT22;51349;52.424;10.840;2023-08-20T09:51:15;30.80;99.90
64869;DHT22;51349;52.424;10.840;2023-08-20T09:56:28;31.40;99.90
64869;DHT22;51349;52.424;10.840;2023-08-20T10:01:30;31.90;99.90
64869;DHT22;51349;52.424;10.840;2023-08-20T10:06:33;31.50;99.90
64869;DHT22;51349;52.424;10.840;2023-08-20T10:11:34;31.60;99.90
64869;DHT22;51349;52.424;10.840;2023-08-20T10:16:35;31.30;99.90
64869;DHT22;51349;52.424;10.840;2023-08-20T10:21:36;31.60;99.90
64869;DHT22;51349;52.424;10.840;2023-08-20T10:26:36;31.60;99.90
64869;DHT22;51349;52.424;10.840;2023-08-20T10:31:46;31.10;99.90
64869;DHT22;51349;52.424;10.840;2023-08-20T10:36:50;30.30;99.90
64869;DHT22;51349;52.424;10.840;2023-08-20T10:42:28;29.70;99.90
64869;DHT22;51349;52.424;10.840;2023-08-20T10:47:48;30.00;99.90
64869;DHT22;51349;52.424;10.840;2023-08-20T10:52:55;29.90;99.90
64869;DHT22;51349;52.424;10.840;2023-08-20T10:57:57;29.90;99.90
64869;DHT22;51349;52.424;10.840;2023-08-20T11:02:59;29.70;99.90
64869;DHT22;51349;52.424;10.840;2023-08-20T11:08:01;29.30;99.90
64869;DHT22;51349;52.424;10.840;2023-08-20T11:13:03;29.40;99.90
64869;DHT22;51349;52.424;10.840;2023-08-20T11:18:06;29.20;99.90
64869;DHT22;51349;52.424;10.840;2023-08-20T11:23:07;28.80;99.90
64869;DHT22;51349;52.424;10.840;2023-08-20T11:28:09;29.00;99.90
64869;DHT22;51349;52.424;10.840;2023-08-20T11:33:10;28.60;99.90
64869;DHT22;51349;52.424;10.840;2023-08-20T11:38:12;28.80;99.90
64869;DHT22;51349;52.424;10.840;2023-08-20T11:43:12;28.80;99.90
64869;DHT22;51349;52.424;10.840;2023-08-20T11:48:14;28.50;99.90
64869;DHT22;51349;52.424;10.840;2023-08-20T11:53:15;28.60;99.90
64869;DHT22;51349;52.424;10.840;2023-08-20T11:58:21;28.50;99.90
64869;DHT22;51349;52.424;10.840;2023-08-20T12:03:22;28.00;99.90
64869;DHT22;51349;52.424;10.840;2023-08-20T12:08:37;28.20;99.90
64869;DHT22;51349;52.424;10.840;2023-08-20T12:13:38;28.40;99.90
64869;DHT22;51349;52.424;10.840;2023-08-20T12:18:38;28.50;99.90
64869;DHT22;51349;52.424;10.840;2023-08-20T12:23:39;28.30;99.90
64869;DHT22;51349;52.424;10.840;2023-08-20T12:28:40;28.40;99.90
64869;DHT22;51349;52.424;10.840;2023-08-20T12:33:42;28.40;99.90
64869;DHT22;51349;52.424;10.840;2023-08-20T12:38:42;28.10;99.90
64869;DHT22;51349;52.424;10.840;2023-08-20T12:43:43;28.20;99.90
64869;DHT22;51349;52.424;10.840;2023-08-20T12:48:44;28.20;99.90
64869;DHT22;51349;52.424;10.840;2023-08-20T12:53:45;28.10;99.90
64869;DHT22;51349;52.424;10.840;2023-08-20T12:58:45;28.10;99.90
64869;DHT22;51349;52.424;10.840;2023-08-20T13:03:46;28.10;99.90
64869;DHT22;51349;52.424;10.840;2023-08-20T13:08:47;28.10;99.90
64869;DHT22;51349;52.424;10.840;2023-08-20T13:13:48;28.10;99.90
64869;DHT22;51349;52.424;10.840;2023-08-20T13:18:49;27.90;99.90
64869;DHT22;51349;52.424;10.840;2023-08-20T13:23:50;27.70;99.90
64869;DHT22;51349;52.424;10.840;2023-08-20T13:28:50;27.70;99.90
64869;DHT22;51349;52.424;10.840;2023-08-20T13:33:51;27.40;99.90
64869;DHT22;51349;52.424;10.840;2023-08-20T13:38:53;27.60;99.90
64869;DHT22;51349;52.424;10.840;2023-08-20T13:43:54;27.70;99.90
64869;DHT22;51349;52.424;10.840;2023-08-20T13:48:54;27.40;99.90
64869;DHT22;51349;52.424;10.840;2023-08-20T13:53:55;27.30;99.90
64869;DHT22;51349;52.424;10.840;2023-08-20T13:58:56;27.50;99.90
64869;DHT22;51349;52.424;10.840;2023-08-20T14:03:57;27.60;99.90
64869;DHT22;51349;52.424;10.840;2023-08-20T14:08:57;27.70;99.90
64869;DHT22;51349;52.424;10.840;2023-08-20T14:13:58;27.90;99.90
64869;DHT22;51349;52.424;10.840;2023-08-20T14:18:59;28.10;99.90
64869;DHT22;51349;52.424;10.840;2023-08-20T14:23:59;28.10;99.90
64869;DHT22;51349;52.424;10.840;2023-08-20T14:29:01;27.80;99.90
64869;DHT22;51349;52.424;10.840;2023-08-20T14:34:01;27.70;99.90
64869;DHT22;51349;52.424;10.840;2023-08-20T14:39:02;27.70;99.90
64869;DHT22;51349;52.424;10.840;2023-08-20T14:44:05;27.90;99.90
64869;DHT22;51349;52.424;10.840;2023-08-20T14:49:06;27.90;99.90
64869;DHT22;51349;52.424;10.840;2023-08-20T14:54:06;27.90;99.90
64869;DHT22;51349;52.424;10.840;2023-08-20T14:59:07;27.80;99.90
64869;DHT22;51349;52.424;10.840;2023-08-20T15:04:10;28.00;99.90
64869;DHT22;51349;52.424;10.840;2023-08-20T15:09:10;28.10;99.90
64869;DHT22;51349;52.424;10.840;2023-08-20T15:14:15;28.10;99.90
64869;DHT22;51349;52.424;10.840;2023-08-20T15:19:16;28.10;99.90
64869;DHT22;51349;52.424;10.840;2023-08-20T15:24:17;28.00;99.90
64869;DHT22;51349;52.424;10.840;2023-08-20T15:29:17;27.90;99.90
64869;DHT22;51349;52.424;10.840;2023-08-20T15:34:18;27.80;99.90
64869;DHT22;51349;52.424;10.840;2023-08-20T15:39:19;27.90;99.90
64869;DHT22;51349;52.424;10.840;2023-08-20T15:44:20;28.00;99.90
64869;DHT22;51349;52.424;10.840;2023-08-20T15:49:20;28.00;99.90
64869;DHT22;51349;52.424;10.840;2023-08-20T15:54:21;28.10;99.90
64869;DHT22;51349;52.424;10.840;2023-08-20T15:59:22;28.00;99.90
64869;DHT22;51349;52.424;10.840;2023-08-20T16:04:22;28.20;99.90
64869;DHT22;51349;52.424;10.840;2023-08-20T16:09:23;28.00;99.90
64869;DHT22;51349;52.424;10.840;2023-08-20T16:14:23;28.10;99.90
64869;DHT22;51349;52.424;10.840;2023-08-20T16:19:25;28.10;99.90
64869;DHT22;51349;52.424;10.840;2023-08-20T16:24:25;28.30;99.90
64869;DHT22;51349;52.424;10.840;2023-08-20T16:29:26;28.30;99.90
64869;DHT22;51349;52.424;10.840;2023-08-20T16:34:28;28.40;99.90
64869;DHT22;51349;52.424;10.840;2023-08-20T16:39:28;29.10;99.90
64869;DHT22;51349;52.424;10.840;2023-08-20T16:44:29;28.70;99.90
64869;DHT22;51349;52.424;10.840;2023-08-20T16:49:30;28.20;99.90
64869;DHT22;51349;52.424;10.840;2023-08-20T16:54:30;27.30;99.90
64869;DHT22;51349;52.424;10.840;2023-08-20T16:59:31;27.50;99.90
64869;DHT22;51349;52.424;10.840;2023-08-20T17:04:32;27.40;99.90
64869;DHT22;51349;52.424;10.840;2023-08-20T17:09:33;28.00;99.90
64869;DHT22;51349;52.424;10.840;2023-08-20T17:14:34;27.50;99.90
64869;DHT22;51349;52.424;10.840;2023-08-20T17:19:35;26.60;99.90
64869;DHT22;51349;52.424;10.840;2023-08-20T17:24:36;26.20;99.90
64869;DHT22;51349;52.424;10.840;2023-08-20T17:29:37;25.90;99.90
64869;DHT22;51349;52.424;10.840;2023-08-20T17:34:38;25.60;99.90
64869;DHT22;51349;52.424;10.840;2023-08-20T17:39:38;25.50;99.90
64869;DHT22;51349;52.424;10.840;2023-08-20T17:44:39;25.40;99.90
64869;DHT22;51349;52.424;10.840;2023-08-20T17:49:39;25.30;99.90
64869;DHT22;51349;52.424;10.840;2023-08-20T17:54:40;25.10;99.90
64869;DHT22;51349;52.424;10.840;2023-08-20T17:59:41;24.80;99.90
64869;DHT22;51349;52.424;10.840;2023-08-20T18:04:41;24.70;99.90
64869;DHT22;51349;52.424;10.840;2023-08-20T18:09:42;24.40;99.90
64869;DHT22;51349;52.424;10.840;2023-08-20T18:14:43;24.10;99.90
64869;DHT22;51349;52.424;10.840;2023-08-20T18:19:43;24.00;99.90
64869;DHT22;51349;52.424;10.840;2023-08-20T18:24:44;24.10;99.90
64869;DHT22;51349;52.424;10.840;2023-08-20T18:29:45;23.90;99.90
64869;DHT22;51349;52.424;10.840;2023-08-20T18:34:45;23.60;99.90
64869;DHT22;51349;52.424;10.840;2023-08-20T18:39:46;23.40;99.90
64869;DHT22;51349;52.424;10.840;2023-08-20T18:44:47;23.20;99.90
64869;DHT22;51349;52.424;10.840;2023-08-20T18:49:47;23.10;99.90
64869;DHT22;51349;52.424;10.840;2023-08-20T18:54:48;23.00;99.90
64869;DHT22;51349;52.424;10.840;2023-08-20T18:59:49;22.70;99.90
64869;DHT22;51349;52.424;10.840;2023-08-20T19:04:49;22.60;99.90
64869;DHT22;51349;52.424;10.840;2023-08-20T19:09:50;22.50;99.90
64869;DHT22;51349;52.424;10.840;2023-08-20T19:14:51;22.60;99.90
64869;DHT22;51349;52.424;10.840;2023-08-20T19:19:51;22.70;99.90
64869;DHT22;51349;52.424;10.840;2023-08-20T19:24:52;22.40;99.90
64869;DHT22;51349;52.424;10.840;2023-08-20T19:29:53;22.20;99.90
64869;DHT22;51349;52.424;10.840;2023-08-20T19:34:53;22.00;99.90
64869;DHT22;51349;52.424;10.840;2023-08-20T19:39:54;21.80;99.90
64869;DHT22;51349;52.424;10.840;2023-08-20T19:44:55;21.70;99.90
64869;DHT22;51349;52.424;10.840;2023-08-20T19:49:55;21.60;99.90
64869;DHT22;51349;52.424;10.840;2023-08-20T19:54:56;21.60;99.90
64869;DHT22;51349;52.424;10.840;2023-08-20T19:59:57;21.20;99.90
64869;DHT22;51349;52.424;10.840;2023-08-20T20:04:57;21.30;99.90
64869;DHT22;51349;52.424;10.840;2023-08-20T20:09:58;21.20;99.90
64869;DHT22;51349;52.424;10.840;2023-08-20T20:14:59;21.30;99.90
64869;DHT22;51349;52.424;10.840;2023-08-20T20:19:59;21.30;99.90
64869;DHT22;51349;52.424;10.840;2023-08-20T20:25:00;21.20;99.90
64869;DHT22;51349;52.424;10.840;2023-08-20T20:30:03;21.30;99.90
64869;DHT22;51349;52.424;10.840;2023-08-20T20:35:05;21.30;99.90
64869;DHT22;51349;52.424;10.840;2023-08-20T20:40:06;21.30;99.90
64869;DHT22;51349;52.424;10.840;2023-08-20T20:45:10;21.40;99.90
64869;DHT22;51349;52.424;10.840;2023-08-20T20:50:11;21.40;99.90
64869;DHT22;51349;52.424;10.840;2023-08-20T20:55:12;21.30;99.90
64869;DHT22;51349;52.424;10.840;2023-08-20T21:00:13;21.20;99.90
64869;DHT22;51349;52.424;10.840;2023-08-20T21:05:13;21.10;99.90
64869;DHT22;51349;52.424;10.840;2023-08-20T21:10:14;21.10;99.90
64869;DHT22;51349;52.424;10.840;2023-08-20T21:15:15;21.30;99.90
64869;DHT22;51349;52.424;10.840;2023-08-20T21:20:16;21.10;99.90
64869;DHT22;51349;52.424;10.840;2023-08-20T21:25:17;20.80;99.90
64869;DHT22;51349;52.424;10.840;2023-08-20T21:30:17;20.90;99.90
64869;DHT22;51349;52.424;10.840;2023-08-20T21:35:18;20.90;99.90
64869;DHT22;51349;52.424;10.840;2023-08-20T21:40:19;20.60;99.90
64869;DHT22;51349;52.424;10.840;2023-08-20T21:45:19;20.50;99.90
64869;DHT22;51349;52.424;10.840;2023-08-20T21:50:21;20.30;99.90
64869;DHT22;51349;52.424;10.840;2023-08-20T21:55:22;20.30;99.90
64869;DHT22;51349;52.424;10.840;2023-08-20T22:00:22;20.30;99.90
64869;DHT22;51349;52.424;10.840;2023-08-20T22:05:23;20.30;99.90
64869;DHT22;51349;52.424;10.840;2023-08-20T22:10:25;20.20;99.90
64869;DHT22;51349;52.424;10.840;2023-08-20T22:15:25;20.10;99.90
64869;DHT22;51349;52.424;10.840;2023-08-20T22:20:26;20.00;99.90
64869;DHT22;51349;52.424;10.840;2023-08-20T22:25:27;19.90;99.90
64869;DHT22;51349;52.424;10.840;2023-08-20T22:30:28;20.00;99.90
64869;DHT22;51349;52.424;10.840;2023-08-20T22:35:28;19.80;99.90
64869;DHT22;51349;52.424;10.840;2023-08-20T22:40:29;19.70;99.90
64869;DHT22;51349;52.424;10.840;2023-08-20T22:45:30;19.80;99.90
64869;DHT22;51349;52.424;10.840;2023-08-20T22:50:30;19.80;99.90
64869;DHT22;51349;52.424;10.840;2023-08-20T22:55:32;19.80;99.90
64869;DHT22;51349;52.424;10.840;2023-08-20T23:00:32;19.90;99.90
64869;DHT22;51349;52.424;10.840;2023-08-20T23:05:33;20.10;99.90
64869;DHT22;51349;52.424;10.840;2023-08-20T23:10:33;20.40;99.90
64869;DHT22;51349;52.424;10.840;2023-08-20T23:15:34;20.40;99.90
64869;DHT22;51349;52.424;10.840;2023-08-20T23:20:35;20.60;99.90
64869;DHT22;51349;52.424;10.840;2023-08-20T23:25:35;20.50;99.90
64869;DHT22;51349;52.424;10.840;2023-08-20T23:30:36;20.50;99.90
64869;DHT22;51349;52.424;10.840;2023-08-20T23:35:41;20.60;99.90
64869;DHT22;51349;52.424;10.840;2023-08-20T23:40:42;20.50;99.90
64869;DHT22;51349;52.424;10.840;2023-08-20T23:45:43;20.40;99.90
64869;DHT22;51349;52.424;10.840;2023-08-20T23:50:43;20.50;99.90
64869;DHT22;51349;52.424;10.840;2023-08-20T23:55:44;20.40;99.90
